createdAt,value
2022-10-28T00:01:22.812Z,94.10
2022-10-28T00:03:54.198Z,94.30
2022-10-28T00:06:33.749Z,94.50
2022-10-28T00:09:01.183Z,94.70
2022-10-28T00:11:33.392Z,94.30
2022-10-28T00:14:04.221Z,94.20
2022-10-28T00:16:33.952Z,94.10
2022-10-28T00:19:02.310Z,94.30
2022-10-28T00:21:31.540Z,94.30
2022-10-28T00:23:58.350Z,94.40
2022-10-28T00:26:31.265Z,94.50
2022-10-28T00:29:19.361Z,94.50
2022-10-28T00:31:47.224Z,94.60
2022-10-28T00:34:19.507Z,94.40
2022-10-28T00:36:47.509Z,94.50
2022-10-28T00:39:16.808Z,94.70
2022-10-28T00:41:47.655Z,94.70
2022-10-28T00:44:48.489Z,94.90
2022-10-28T00:47:28.804Z,94.70
2022-10-28T00:50:10.196Z,94.60
2022-10-28T00:52:37.574Z,94.60
2022-10-28T00:55:05.177Z,94.40
2022-10-28T00:57:36.678Z,94.70
2022-10-28T01:00:06.638Z,94.90
2022-10-28T01:02:43.207Z,94.80
2022-10-28T01:05:13.076Z,94.90
2022-10-28T01:07:40.323Z,94.70
2022-10-28T01:10:08.527Z,94.40
2022-10-28T01:12:53.064Z,94.80
2022-10-28T01:15:28.971Z,94.90
2022-10-28T01:18:10.946Z,95.00
2022-10-28T01:20:49.484Z,94.90
2022-10-28T01:23:45.608Z,94.70
2022-10-28T01:26:24.272Z,94.80
2022-10-28T01:29:03.307Z,94.70
2022-10-28T01:31:52.580Z,94.70
2022-10-28T01:34:44.732Z,94.90
2022-10-28T01:37:14.513Z,94.70
2022-10-28T01:39:56.189Z,94.90
2022-10-28T01:42:31.552Z,94.70
2022-10-28T01:45:25.114Z,94.80
2022-10-28T01:48:02.169Z,95.00
2022-10-28T01:50:50.910Z,94.70
2022-10-28T01:53:22.273Z,94.70
2022-10-28T01:55:52.414Z,94.50
2022-10-28T01:58:23.849Z,94.50
2022-10-28T02:00:51.013Z,94.50
2022-10-28T02:03:18.024Z,94.40
2022-10-28T02:05:50.250Z,94.40
2022-10-28T02:08:16.907Z,94.00
2022-10-28T02:11:14.063Z,94.00
2022-10-28T02:14:18.495Z,94.20
2022-10-28T02:16:45.160Z,94.10
2022-10-28T02:19:23.318Z,93.80
2022-10-28T02:22:18.374Z,93.90
2022-10-28T02:25:09.417Z,93.90
2022-10-28T02:27:59.210Z,94.00
2022-10-28T02:30:34.556Z,94.00
2022-10-28T02:33:04.750Z,94.30
2022-10-28T02:36:00.621Z,94.00
2022-10-28T02:38:38.289Z,93.80
2022-10-28T02:41:12.797Z,93.90
2022-10-28T02:43:43.836Z,93.80
2022-10-28T02:46:13.297Z,93.70
2022-10-28T02:48:44.738Z,93.70
2022-10-28T02:51:28.602Z,93.80
2022-10-28T02:54:12.999Z,94.00
2022-10-28T02:56:49.046Z,93.80
2022-10-28T02:59:15.968Z,94.20
2022-10-28T03:01:42.853Z,94.30
2022-10-28T03:04:09.791Z,94.40
2022-10-28T03:06:36.596Z,94.20
2022-10-28T03:09:03.545Z,94.10
2022-10-28T03:11:30.343Z,94.20
2022-10-28T03:13:57.120Z,94.20
2022-10-28T03:16:23.901Z,93.70
2022-10-28T03:18:50.649Z,93.60
2022-10-28T03:21:17.419Z,93.70
2022-10-28T03:23:44.166Z,93.60
2022-10-28T03:26:10.850Z,93.50
2022-10-28T03:28:37.743Z,93.70
2022-10-28T03:31:04.823Z,93.70
2022-10-28T03:33:31.557Z,93.70
2022-10-28T03:35:58.389Z,93.70
2022-10-28T03:38:25.251Z,93.90
2022-10-28T03:40:52.090Z,93.90
2022-10-28T03:43:18.904Z,94.00
2022-10-28T03:45:45.626Z,94.00
2022-10-28T03:48:12.909Z,94.20
2022-10-28T03:50:39.631Z,94.20
2022-10-28T03:53:06.656Z,94.20
2022-10-28T03:55:33.650Z,94.30
2022-10-28T03:58:01.421Z,94.30
2022-10-28T04:00:29.771Z,94.30
2022-10-28T04:02:56.872Z,94.30
2022-10-28T04:05:23.816Z,94.30
2022-10-28T04:07:50.666Z,93.80
2022-10-28T04:10:17.490Z,93.70
2022-10-28T04:12:44.293Z,93.80
2022-10-28T04:15:11.144Z,93.70
2022-10-28T04:17:37.887Z,93.70
2022-10-28T04:20:05.024Z,93.50
2022-10-28T04:22:31.771Z,93.40
2022-10-28T04:24:58.587Z,93.60
2022-10-28T04:27:25.409Z,93.60
2022-10-28T04:29:52.224Z,93.80
2022-10-28T04:32:18.968Z,93.90
2022-10-28T04:34:45.699Z,93.90
2022-10-28T04:37:14.082Z,93.90
2022-10-28T04:39:42.599Z,93.60
2022-10-28T04:42:09.390Z,93.70
2022-10-28T04:44:36.138Z,93.50
2022-10-28T04:47:02.957Z,93.30
2022-10-28T04:49:29.673Z,93.50
2022-10-28T04:51:56.465Z,93.60
2022-10-28T04:54:23.714Z,93.80
2022-10-28T04:56:50.462Z,93.80
2022-10-28T04:59:17.573Z,93.70
2022-10-28T05:01:44.442Z,94.10
2022-10-28T05:04:11.306Z,94.10
2022-10-28T05:06:38.261Z,94.00
2022-10-28T05:09:05.015Z,94.00
2022-10-28T05:11:31.762Z,94.20
2022-10-28T05:13:58.603Z,94.20
2022-10-28T05:16:25.438Z,94.10
2022-10-28T05:18:52.200Z,94.00
2022-10-28T05:21:18.941Z,94.00
2022-10-28T05:23:47.086Z,93.90
2022-10-28T05:26:14.474Z,94.10
2022-10-28T05:28:41.488Z,94.00
2022-10-28T05:31:08.257Z,93.80
2022-10-28T05:33:35.018Z,93.60
2022-10-28T05:36:02.098Z,93.10
2022-10-28T05:38:29.595Z,93.20
2022-10-28T05:40:56.385Z,93.60
2022-10-28T05:43:23.197Z,93.70
2022-10-28T05:45:54.911Z,93.60
2022-10-28T05:48:22.671Z,93.60
2022-10-28T05:50:49.481Z,93.60
2022-10-28T05:53:16.671Z,93.60
2022-10-28T05:55:46.797Z,93.70
2022-10-28T05:58:14.962Z,93.60
2022-10-28T06:00:41.665Z,93.90
2022-10-28T06:03:12.020Z,93.90
2022-10-28T06:05:41.877Z,94.00
2022-10-28T06:08:10.302Z,93.90
2022-10-28T06:10:37.045Z,94.10
2022-10-28T06:13:02.371Z,94.00
2022-10-28T06:15:29.252Z,93.90
2022-10-28T06:17:56.947Z,94.00
2022-10-28T06:20:23.680Z,94.10
2022-10-28T06:22:52.687Z,94.20
2022-10-28T06:25:21.087Z,94.10
2022-10-28T06:27:52.831Z,94.00
2022-10-28T06:30:20.684Z,93.90
2022-10-28T06:32:47.550Z,93.80
2022-10-28T06:35:14.458Z,93.60
2022-10-28T06:37:41.204Z,93.70
2022-10-28T06:40:08.512Z,93.50
2022-10-28T06:42:35.474Z,93.30
2022-10-28T06:45:02.901Z,93.30
2022-10-28T06:47:31.817Z,93.60
2022-10-28T06:49:58.587Z,93.50
2022-10-28T06:52:25.298Z,93.40
2022-10-28T06:54:52.059Z,93.50
2022-10-28T06:57:18.781Z,93.80
2022-10-28T06:59:45.501Z,93.40
2022-10-28T07:02:12.405Z,93.70
2022-10-28T07:04:39.321Z,93.60
2022-10-28T07:07:06.074Z,93.60
2022-10-28T07:09:33.605Z,93.90
2022-10-28T07:12:04.798Z,94.10
2022-10-28T07:14:32.110Z,93.90
2022-10-28T07:16:58.861Z,94.00
2022-10-28T07:19:25.596Z,93.70
2022-10-28T07:21:52.309Z,93.40
2022-10-28T07:24:19.460Z,93.40
2022-10-28T07:26:51.924Z,93.00
2022-10-28T07:29:21.028Z,93.20
2022-10-28T07:31:47.750Z,92.90
2022-10-28T07:34:14.757Z,92.60
2022-10-28T07:36:41.496Z,91.90
2022-10-28T07:39:09.962Z,91.00
2022-10-28T07:41:37.619Z,91.20
2022-10-28T07:44:04.443Z,90.90
2022-10-28T07:46:31.171Z,91.10
2022-10-28T07:48:57.931Z,91.50
2022-10-28T07:51:24.725Z,91.30
2022-10-28T07:53:51.433Z,91.50
2022-10-28T07:56:18.398Z,91.60
2022-10-28T07:58:47.452Z,91.40
2022-10-28T08:01:17.042Z,91.70
2022-10-28T08:03:44.572Z,91.90
2022-10-28T08:06:18.080Z,92.30
2022-10-28T08:08:45.939Z,92.30
2022-10-28T08:11:16.350Z,92.60
2022-10-28T08:13:43.416Z,92.90
2022-10-28T08:16:10.565Z,92.60
2022-10-28T08:18:38.619Z,92.00
2022-10-28T08:21:08.445Z,92.10
2022-10-28T08:23:35.340Z,91.90
2022-10-28T08:26:02.645Z,91.00
2022-10-28T08:28:29.720Z,91.40
2022-10-28T08:31:08.629Z,90.50
2022-10-28T08:33:42.153Z,90.50
2022-10-28T08:36:11.372Z,90.40
2022-10-28T08:38:42.920Z,89.90
2022-10-28T08:41:36.632Z,89.30
2022-10-28T08:44:21.891Z,89.40
2022-10-28T08:47:19.419Z,88.90
2022-10-28T08:49:50.124Z,89.10
2022-10-28T08:52:45.839Z,89.30
2022-10-28T08:55:20.702Z,89.00
2022-10-28T08:57:55.400Z,89.70
2022-10-28T09:00:26.437Z,89.50
2022-10-28T09:03:08.334Z,89.40
2022-10-28T09:05:35.325Z,89.70
2022-10-28T09:08:03.115Z,89.80
2022-10-28T09:10:50.090Z,89.90
2022-10-28T09:13:42.089Z,89.80
2022-10-28T09:16:17.732Z,89.80
2022-10-28T09:18:59.093Z,90.30
2022-10-28T09:21:45.859Z,90.30
2022-10-28T09:24:20.008Z,90.40
2022-10-28T09:26:54.178Z,90.30
2022-10-28T09:29:27.041Z,90.20
2022-10-28T09:32:15.159Z,89.70
2022-10-28T09:34:49.892Z,88.90
2022-10-28T09:37:40.150Z,89.70
2022-10-28T09:40:15.924Z,89.50
2022-10-28T09:43:08.065Z,88.90
2022-10-28T09:45:40.233Z,89.00
2022-10-28T09:48:19.140Z,89.30
2022-10-28T09:50:49.013Z,88.90
2022-10-28T09:53:40.877Z,88.60
2022-10-28T09:58:44.488Z,87.90
2022-10-28T10:01:11.404Z,88.20
2022-10-28T10:03:39.990Z,88.20
2022-10-28T10:06:15.492Z,88.20
2022-10-28T10:08:42.885Z,87.90
2022-10-28T10:11:27.951Z,88.50
2022-10-28T10:13:57.102Z,88.00
2022-10-28T10:16:54.561Z,88.30
2022-10-28T10:19:21.598Z,87.40
2022-10-28T10:21:54.232Z,87.00
2022-10-28T10:24:34.026Z,87.20
2022-10-28T10:27:22.636Z,87.30
2022-10-28T10:29:51.701Z,87.30
2022-10-28T10:32:25.898Z,86.60
2022-10-28T10:35:01.630Z,85.70
2022-10-28T10:37:31.829Z,83.10
2022-10-28T10:40:19.650Z,81.60
2022-10-28T10:42:57.605Z,81.90
2022-10-28T10:45:33.966Z,80.40
2022-10-28T10:48:15.891Z,80.10
2022-10-28T10:50:45.679Z,80.90
2022-10-28T10:53:31.391Z,80.20
2022-10-28T10:56:03.629Z,79.80
2022-10-28T10:58:38.004Z,79.20
2022-10-28T11:01:07.605Z,79.40
2022-10-28T11:03:59.822Z,79.60
2022-10-28T11:06:30.258Z,77.40
2022-10-28T11:09:01.197Z,76.20
2022-10-28T11:11:55.905Z,75.80
2022-10-28T11:14:32.362Z,74.40
2022-10-28T11:17:01.273Z,74.50
2022-10-28T11:19:38.223Z,74.90
2022-10-28T11:22:26.012Z,73.20
2022-10-28T11:25:34.386Z,73.00
2022-10-28T11:28:12.349Z,72.70
2022-10-28T11:33:50.296Z,71.20
2022-10-28T11:36:28.755Z,70.60
2022-10-28T11:39:09.975Z,71.50
2022-10-28T11:41:48.913Z,69.40
2022-10-28T11:44:25.207Z,69.30
2022-10-28T11:47:06.616Z,68.20
2022-10-28T11:49:46.970Z,68.60
2022-10-28T11:52:51.726Z,67.60
2022-10-28T11:55:36.379Z,66.60
2022-10-28T11:58:06.206Z,65.60
2022-10-28T12:00:35.773Z,65.60
2022-10-28T12:03:25.490Z,63.40
2022-10-28T12:06:01.301Z,61.90
2022-10-28T12:08:54.673Z,61.00
2022-10-28T12:11:35.993Z,60.00
2022-10-28T12:14:24.392Z,59.00
2022-10-28T12:17:12.724Z,57.10
2022-10-28T12:20:08.019Z,55.40
2022-10-28T12:22:41.865Z,57.00
2022-10-28T12:25:15.850Z,55.60
2022-10-28T12:27:46.305Z,54.90
2022-10-28T12:30:23.347Z,56.90
2022-10-28T12:32:56.471Z,51.10
2022-10-28T12:35:45.815Z,46.30
2022-10-28T12:38:38.863Z,47.60
2022-10-28T12:41:26.424Z,44.60
2022-10-28T12:44:16.077Z,44.40
2022-10-28T12:47:03.548Z,49.50
2022-10-28T12:49:42.256Z,51.30
2022-10-28T12:52:24.877Z,51.90
2022-10-28T12:55:01.642Z,53.00
2022-10-28T12:57:30.775Z,52.20
2022-10-28T13:00:06.390Z,50.70
2022-10-28T13:02:47.045Z,47.40
2022-10-28T13:05:45.138Z,48.80
2022-10-28T13:08:39.367Z,48.60
2022-10-28T13:11:21.231Z,49.10
2022-10-28T13:14:03.163Z,46.20
2022-10-28T13:17:03.369Z,46.50
2022-10-28T13:19:51.634Z,48.60
2022-10-28T13:22:18.387Z,44.00
2022-10-28T13:25:21.764Z,45.70
2022-10-28T13:27:54.826Z,47.30
2022-10-28T13:30:22.854Z,48.90
2022-10-28T13:33:08.769Z,49.20
2022-10-28T13:35:36.933Z,49.40
2022-10-28T13:38:11.570Z,53.00
2022-10-28T13:40:38.341Z,49.80
2022-10-28T13:43:05.199Z,49.60
2022-10-28T13:45:53.528Z,49.50
2022-10-28T13:48:29.161Z,48.80
2022-10-28T13:51:11.023Z,47.10
2022-10-28T13:53:45.293Z,48.50
2022-10-28T13:56:25.193Z,50.80
2022-10-28T13:58:56.704Z,51.60
2022-10-28T14:01:41.972Z,50.90
2022-10-28T14:04:25.214Z,51.40
2022-10-28T14:07:10.278Z,54.00
2022-10-28T14:09:39.772Z,53.40
2022-10-28T14:12:18.868Z,54.20
2022-10-28T14:15:17.984Z,53.60
2022-10-28T14:17:51.817Z,55.80
2022-10-28T14:20:44.057Z,56.30
2022-10-28T14:23:19.953Z,56.20
2022-10-28T14:25:49.741Z,58.40
2022-10-28T14:28:31.288Z,58.90
2022-10-28T14:31:13.005Z,60.20
2022-10-28T14:33:54.898Z,60.50
2022-10-28T14:36:42.016Z,59.50
2022-10-28T14:39:27.532Z,60.00
2022-10-28T14:42:09.180Z,61.10
2022-10-28T14:45:00.859Z,62.10
2022-10-28T14:47:56.153Z,61.70
2022-10-28T14:50:28.320Z,63.80
2022-10-28T14:52:56.712Z,64.20
2022-10-28T14:55:30.753Z,65.20
2022-10-28T14:58:23.054Z,63.30
2022-10-28T15:01:04.586Z,64.00
2022-10-28T15:03:32.071Z,65.50
2022-10-28T15:06:17.079Z,67.80
2022-10-28T15:08:43.851Z,69.10
2022-10-28T15:11:10.700Z,67.10
2022-10-28T15:13:37.424Z,70.20
2022-10-28T15:16:04.843Z,67.90
2022-10-28T15:18:31.878Z,68.30
2022-10-28T15:21:09.744Z,68.80
2022-10-28T15:23:36.607Z,68.90
2022-10-28T15:26:14.811Z,70.70
2022-10-28T15:28:42.477Z,70.80
2022-10-28T15:31:09.335Z,70.60
2022-10-28T15:33:41.549Z,71.30
2022-10-28T15:36:18.721Z,72.00
2022-10-28T15:38:48.969Z,72.30
2022-10-28T15:41:30.539Z,74.10
2022-10-28T15:44:01.626Z,75.90
2022-10-28T15:46:30.886Z,76.40
2022-10-28T15:48:59.679Z,76.00
2022-10-28T15:51:27.032Z,76.00
2022-10-28T15:54:09.046Z,76.10
2022-10-28T15:56:54.367Z,76.40
2022-10-28T15:59:23.563Z,76.00
2022-10-28T16:01:50.779Z,78.20
2022-10-28T16:04:23.561Z,78.40
2022-10-28T16:06:55.585Z,78.10
2022-10-28T16:09:34.171Z,77.60
2022-10-28T16:12:04.529Z,78.00
2022-10-28T16:14:33.760Z,77.60
2022-10-28T16:17:12.732Z,78.30
2022-10-28T16:19:43.752Z,79.00
2022-10-28T16:24:53.339Z,79.20
2022-10-28T16:27:28.512Z,79.80
2022-10-28T16:29:55.324Z,80.20
2022-10-28T16:32:48.868Z,81.30
2022-10-28T16:35:23.457Z,81.30
2022-10-28T16:37:55.188Z,82.00
2022-10-28T16:40:51.118Z,82.30
2022-10-28T16:43:22.281Z,83.00
2022-10-28T16:45:50.287Z,83.70
2022-10-28T16:48:18.720Z,83.90
2022-10-28T16:50:53.906Z,83.80
2022-10-28T16:53:21.377Z,83.90
2022-10-28T16:55:48.415Z,83.90
2022-10-28T16:58:15.685Z,84.30
2022-10-28T17:00:43.304Z,84.60
2022-10-28T17:03:16.785Z,84.60
2022-10-28T17:05:43.948Z,85.80
2022-10-28T17:08:11.528Z,86.50
2022-10-28T17:10:42.007Z,86.50
2022-10-28T17:13:15.328Z,87.40
2022-10-28T17:15:43.174Z,87.70
2022-10-28T17:18:10.981Z,87.20
2022-10-28T17:20:37.735Z,87.00
2022-10-28T17:23:05.653Z,87.40
2022-10-28T17:25:32.579Z,87.60
2022-10-28T17:27:59.491Z,87.70
2022-10-28T17:30:26.426Z,88.10
2022-10-28T17:32:54.542Z,88.20
2022-10-28T17:35:22.689Z,88.50
2022-10-28T17:37:49.650Z,88.40
2022-10-28T17:40:16.596Z,88.60
2022-10-28T17:42:43.377Z,88.20
2022-10-28T17:45:11.299Z,88.40
2022-10-28T17:47:38.144Z,88.70
2022-10-28T17:50:05.506Z,89.20
2022-10-28T17:52:35.722Z,89.00
2022-10-28T17:55:05.646Z,89.20
2022-10-28T17:57:32.506Z,89.40
2022-10-28T17:59:59.381Z,89.30
2022-10-28T18:02:26.652Z,89.50
2022-10-28T18:04:53.439Z,89.50
2022-10-28T18:07:20.164Z,89.50
2022-10-28T18:09:46.920Z,89.50
2022-10-28T18:12:13.667Z,88.70
2022-10-28T18:14:40.791Z,89.50
2022-10-28T18:17:07.634Z,89.50
2022-10-28T18:19:34.476Z,89.70
2022-10-28T18:22:01.253Z,89.90
2022-10-28T18:24:28.020Z,90.60
2022-10-28T18:26:55.868Z,90.50
2022-10-28T18:29:22.649Z,90.30
2022-10-28T18:31:49.437Z,90.20
2022-10-28T18:34:16.500Z,90.50
2022-10-28T18:36:43.239Z,90.60
2022-10-28T18:39:10.081Z,90.90
2022-10-28T18:41:41.460Z,90.90
2022-10-28T18:44:12.103Z,90.50
2022-10-28T18:46:39.002Z,90.20
2022-10-28T18:49:05.871Z,90.30
2022-10-28T18:51:33.770Z,90.50
2022-10-28T18:54:00.740Z,90.40
2022-10-28T18:56:31.496Z,90.50
2022-10-28T18:59:01.315Z,90.60
2022-10-28T19:01:28.935Z,90.90
2022-10-28T19:03:58.100Z,90.80
2022-10-28T19:06:29.696Z,91.00
2022-10-28T19:08:58.865Z,90.80
2022-10-28T19:11:31.146Z,91.00
2022-10-28T19:13:59.679Z,91.20
2022-10-28T19:16:27.489Z,91.30
2022-10-28T19:18:55.758Z,91.10
2022-10-28T19:21:22.821Z,91.10
2022-10-28T19:23:49.542Z,91.40
2022-10-28T19:26:16.785Z,91.60
2022-10-28T19:28:45.987Z,91.80
2022-10-28T19:31:15.343Z,91.90
2022-10-28T19:33:43.327Z,91.80
2022-10-28T19:36:14.282Z,91.90
2022-10-28T19:38:41.197Z,91.80
2022-10-28T19:41:13.802Z,91.80
2022-10-28T19:43:41.356Z,91.90
2022-10-28T19:46:11.187Z,91.70
2022-10-28T19:48:39.632Z,91.70
2022-10-28T19:51:07.698Z,91.80
2022-10-28T19:53:34.773Z,91.70
2022-10-28T19:56:03.056Z,91.80
2022-10-28T19:58:31.122Z,91.60
2022-10-28T20:01:06.011Z,91.70
2022-10-28T20:03:34.756Z,92.00
2022-10-28T20:06:07.761Z,91.90
2022-10-28T20:08:36.505Z,91.70
2022-10-28T20:11:08.426Z,91.70
2022-10-28T20:13:36.301Z,91.70
2022-10-28T20:16:10.197Z,92.00
2022-10-28T20:18:37.629Z,92.10
2022-10-28T20:21:13.631Z,92.30
2022-10-28T20:23:41.762Z,92.20
2022-10-28T20:26:09.157Z,92.10
2022-10-28T20:28:36.067Z,92.20
2022-10-28T20:31:14.715Z,92.40
2022-10-28T20:33:43.497Z,92.40
2022-10-28T20:36:31.463Z,92.50
2022-10-28T20:39:15.448Z,92.50
2022-10-28T20:41:43.863Z,92.70
2022-10-28T20:44:10.813Z,92.60
2022-10-28T20:46:37.557Z,92.80
2022-10-28T20:49:05.644Z,92.50
2022-10-28T20:51:33.430Z,92.50
2022-10-28T20:54:00.848Z,92.60
2022-10-28T20:56:32.666Z,92.60
2022-10-28T20:58:59.813Z,92.60
2022-10-28T21:01:29.286Z,92.70
2022-10-28T21:03:58.289Z,92.80
2022-10-28T21:06:25.986Z,92.60
2022-10-28T21:08:53.583Z,92.90
2022-10-28T21:11:22.729Z,92.50
2022-10-28T21:13:52.433Z,92.50
2022-10-28T21:16:20.571Z,92.70
2022-10-28T21:18:49.502Z,92.90
2022-10-28T21:21:16.421Z,92.80
2022-10-28T21:23:43.200Z,92.90
2022-10-28T21:26:11.634Z,92.80
2022-10-28T21:28:41.202Z,92.50
2022-10-28T21:31:09.235Z,92.10
2022-10-28T21:33:36.935Z,92.30
2022-10-28T21:36:15.419Z,92.40
2022-10-28T21:38:42.762Z,92.60
2022-10-28T21:41:13.809Z,92.70
2022-10-28T21:43:43.366Z,93.00
2022-10-28T21:46:10.940Z,93.10
2022-10-28T21:48:38.178Z,93.40
2022-10-28T21:51:10.115Z,93.20
2022-10-28T21:53:40.620Z,93.10
2022-10-28T21:56:18.226Z,93.00
2022-10-28T21:58:47.084Z,92.80
2022-10-28T22:01:22.655Z,93.30
2022-10-28T22:03:50.831Z,93.50
2022-10-28T22:06:17.712Z,93.20
2022-10-28T22:08:44.812Z,93.00
2022-10-28T22:11:18.345Z,93.20
2022-10-28T22:13:45.422Z,93.70
2022-10-28T22:16:15.178Z,93.80
2022-10-28T22:18:42.637Z,93.80
2022-10-28T22:21:11.808Z,93.40
2022-10-28T22:23:38.795Z,93.50
2022-10-28T22:26:08.143Z,93.70
2022-10-28T22:28:35.303Z,93.60
2022-10-28T22:31:04.319Z,93.60
2022-10-28T22:33:32.283Z,93.60
2022-10-28T22:36:05.219Z,93.50
2022-10-28T22:38:32.203Z,93.70
2022-10-28T22:41:22.421Z,93.70
2022-10-28T22:43:51.272Z,93.70
2022-10-28T22:46:18.254Z,93.70
2022-10-28T22:48:45.817Z,93.70
2022-10-28T22:51:12.875Z,93.80
2022-10-28T22:53:40.470Z,93.40
2022-10-28T22:56:09.067Z,93.50
2022-10-28T22:58:35.816Z,93.40
2022-10-28T23:01:17.496Z,93.40
2022-10-28T23:03:46.995Z,93.40
2022-10-28T23:06:16.072Z,93.40
2022-10-28T23:08:44.694Z,93.10
2022-10-28T23:11:12.526Z,93.10
2022-10-28T23:13:39.626Z,93.40
2022-10-28T23:16:09.027Z,93.30
2022-10-28T23:18:36.181Z,93.30
2022-10-28T23:21:17.760Z,93.50
2022-10-28T23:23:51.278Z,93.50
2022-10-28T23:26:29.415Z,93.50
2022-10-28T23:28:58.521Z,93.60
2022-10-28T23:31:25.870Z,93.60
2022-10-28T23:33:54.268Z,94.10
2022-10-28T23:36:21.271Z,94.40
2022-10-28T23:38:48.101Z,94.40
2022-10-28T23:41:18.499Z,94.20
2022-10-28T23:43:46.227Z,93.90
2022-10-28T23:46:13.007Z,93.70
2022-10-28T23:48:39.942Z,93.70
2022-10-28T23:51:07.166Z,93.80
2022-10-28T23:53:34.391Z,93.30
2022-10-28T23:56:01.145Z,92.80
2022-10-28T23:58:27.944Z,93.10
